createdAt,value
2022-12-28T00:01:45.807Z,68.93
2022-12-28T00:04:13.811Z,47.93
2022-12-28T00:06:40.952Z,22.67
2022-12-28T00:09:09.211Z,17.93
2022-12-28T00:11:36.331Z,24.00
2022-12-28T00:14:03.471Z,29.90
2022-12-28T00:16:34.690Z,11.23
2022-12-28T00:19:02.433Z,27.70
2022-12-28T00:21:29.653Z,25.13
2022-12-28T00:23:58.221Z,30.13
2022-12-28T00:26:25.755Z,47.00
2022-12-28T00:28:55.575Z,29.13
2022-12-28T00:31:27.102Z,27.70
2022-12-28T00:33:54.399Z,23.47
2022-12-28T00:36:21.569Z,20.83
2022-12-28T00:38:48.810Z,22.07
2022-12-28T00:41:15.979Z,10.60
2022-12-28T00:43:43.243Z,62.90
2022-12-28T00:46:10.836Z,79.70
2022-12-28T00:48:38.123Z,31.80
2022-12-28T00:51:05.897Z,12.90
2022-12-28T00:53:33.127Z,43.83
2022-12-28T00:56:29.845Z,27.37
2022-12-28T00:58:58.066Z,14.80
2022-12-28T01:01:25.466Z,14.20
2022-12-28T01:03:52.782Z,16.97
2022-12-28T01:06:20.364Z,20.67
2022-12-28T01:08:47.501Z,20.83
2022-12-28T01:11:16.819Z,10.43
2022-12-28T01:13:44.031Z,14.37
2022-12-28T01:16:14.906Z,20.97
2022-12-28T01:18:42.198Z,110.20
2022-12-28T01:21:13.237Z,39.17
2022-12-28T01:23:40.421Z,46.70
2022-12-28T01:26:07.575Z,67.63
2022-12-28T01:28:34.784Z,34.10
2022-12-28T01:31:08.752Z,11.40
2022-12-28T01:33:36.119Z,12.07
2022-12-28T01:36:06.947Z,13.53
2022-12-28T01:38:34.122Z,10.77
2022-12-28T01:41:01.345Z,10.87
2022-12-28T01:43:41.843Z,12.43
2022-12-28T01:46:09.994Z,8.90
2022-12-28T01:48:37.202Z,11.90
2022-12-28T01:51:04.360Z,10.20
2022-12-28T01:53:31.539Z,8.97
2022-12-28T01:55:58.704Z,9.17
2022-12-28T01:58:26.385Z,8.80
2022-12-28T02:00:53.691Z,6.30
2022-12-28T02:03:22.317Z,6.97
2022-12-28T02:05:50.331Z,7.33
2022-12-28T02:08:29.801Z,4.90
2022-12-28T02:10:56.971Z,7.23
2022-12-28T02:13:24.699Z,5.13
2022-12-28T02:15:51.911Z,4.60
2022-12-28T02:18:19.178Z,4.70
2022-12-28T02:21:05.247Z,6.53
2022-12-28T02:23:47.743Z,9.07
2022-12-28T02:26:33.832Z,8.70
2022-12-28T02:29:10.118Z,8.70
2022-12-28T02:31:39.774Z,9.47
2022-12-28T02:34:10.659Z,9.23
2022-12-28T02:36:39.617Z,8.30
2022-12-28T02:39:08.563Z,16.33
2022-12-28T02:41:35.786Z,14.97
2022-12-28T02:44:02.944Z,12.93
2022-12-28T02:46:49.011Z,14.87
2022-12-28T02:49:44.423Z,14.10
2022-12-28T02:52:22.405Z,9.13
2022-12-28T02:55:11.168Z,13.67
2022-12-28T02:57:52.376Z,15.10
2022-12-28T03:00:20.126Z,9.63
2022-12-28T03:02:59.521Z,13.80
2022-12-28T03:06:19.369Z,17.23
2022-12-28T03:08:49.922Z,10.67
2022-12-28T03:11:20.919Z,12.60
2022-12-28T03:13:53.243Z,13.07
2022-12-28T03:16:30.491Z,12.80
2022-12-28T03:19:17.149Z,11.13
2022-12-28T03:22:02.935Z,12.97
2022-12-28T03:24:49.106Z,18.60
2022-12-28T03:27:34.803Z,27.13
2022-12-28T03:30:21.389Z,17.53
2022-12-28T03:32:48.608Z,13.47
2022-12-28T03:35:17.187Z,20.87
2022-12-28T03:37:48.063Z,21.63
2022-12-28T03:40:15.487Z,21.43
2022-12-28T03:43:04.478Z,20.47
2022-12-28T03:45:47.672Z,19.30
2022-12-28T03:48:15.218Z,26.90
2022-12-28T03:50:43.025Z,28.93
2022-12-28T03:53:10.269Z,36.23
2022-12-28T03:55:38.089Z,26.43
2022-12-28T03:58:05.844Z,28.80
2022-12-28T04:00:33.119Z,25.20
2022-12-28T04:03:00.371Z,28.47
2022-12-28T04:05:27.603Z,23.47
2022-12-28T04:07:54.784Z,19.10
2022-12-28T04:10:21.956Z,21.90
2022-12-28T04:12:49.143Z,20.27
2022-12-28T04:15:16.395Z,22.07
2022-12-28T04:17:43.528Z,21.40
2022-12-28T04:20:10.762Z,20.13
2022-12-28T04:22:37.950Z,19.40
2022-12-28T04:25:06.155Z,18.73
2022-12-28T04:27:33.361Z,18.27
2022-12-28T04:30:00.563Z,19.20
2022-12-28T04:32:27.776Z,20.70
2022-12-28T04:34:54.927Z,18.30
2022-12-28T04:37:22.107Z,18.70
2022-12-28T04:39:55.500Z,24.43
2022-12-28T04:42:24.926Z,23.83
2022-12-28T04:44:52.111Z,22.17
2022-12-28T04:47:19.308Z,21.00
2022-12-28T04:49:46.466Z,22.20
2022-12-28T04:52:13.817Z,19.07
2022-12-28T04:54:40.975Z,23.57
2022-12-28T04:57:08.120Z,20.60
2022-12-28T04:59:35.367Z,25.43
2022-12-28T05:02:02.660Z,25.43
2022-12-28T05:04:29.882Z,34.93
2022-12-28T05:06:57.005Z,40.17
2022-12-28T05:09:24.190Z,38.57
2022-12-28T05:11:51.415Z,38.43
2022-12-28T05:14:18.606Z,39.57
2022-12-28T05:16:45.770Z,42.83
2022-12-28T05:19:13.022Z,43.53
2022-12-28T05:21:40.482Z,44.70
2022-12-28T05:24:07.931Z,40.47
2022-12-28T05:26:35.916Z,34.73
2022-12-28T05:29:03.072Z,40.53
2022-12-28T05:31:30.325Z,45.13
2022-12-28T05:33:57.647Z,41.33
2022-12-28T05:36:25.576Z,44.77
2022-12-28T05:38:53.349Z,37.60
2022-12-28T05:41:21.487Z,39.33
2022-12-28T05:43:48.738Z,40.23
2022-12-28T05:46:17.198Z,33.33
2022-12-28T05:48:44.444Z,41.50
2022-12-28T05:51:15.327Z,47.70
2022-12-28T05:53:42.540Z,39.03
2022-12-28T05:56:16.650Z,35.30
2022-12-28T05:58:44.174Z,37.27
2022-12-28T06:01:18.128Z,40.77
2022-12-28T06:03:45.565Z,39.27
2022-12-28T06:06:16.697Z,48.43
2022-12-28T06:08:44.046Z,36.83
2022-12-28T06:11:11.913Z,39.33
2022-12-28T06:13:39.184Z,41.87
2022-12-28T06:16:07.532Z,43.17
2022-12-28T06:18:34.799Z,41.13
2022-12-28T06:21:02.738Z,48.30
2022-12-28T06:23:30.001Z,42.40
2022-12-28T06:25:58.717Z,53.40
2022-12-28T06:28:26.036Z,49.57
2022-12-28T06:30:53.235Z,46.47
2022-12-28T06:33:20.473Z,42.70
2022-12-28T06:35:47.686Z,44.43
2022-12-28T06:38:14.870Z,43.17
2022-12-28T06:41:11.629Z,49.57
2022-12-28T06:43:31.569Z,55.03
2022-12-28T06:45:58.746Z,64.83
2022-12-28T06:48:25.888Z,175.13
2022-12-28T06:50:59.409Z,173.00
2022-12-28T06:53:30.373Z,124.87
2022-12-28T06:56:01.012Z,153.77
2022-12-28T06:58:28.764Z,152.03
2022-12-28T07:00:56.156Z,163.27
2022-12-28T07:03:23.855Z,158.97
2022-12-28T07:05:51.035Z,157.83
2022-12-28T07:08:18.861Z,168.73
2022-12-28T07:10:46.800Z,134.63
2022-12-28T07:13:14.080Z,140.90
2022-12-28T07:15:41.196Z,144.20
2022-12-28T07:18:08.349Z,180.47
2022-12-28T07:20:40.222Z,186.63
2022-12-28T07:23:07.778Z,186.47
2022-12-28T07:25:36.128Z,175.73
2022-12-28T07:28:03.281Z,182.40
2022-12-28T07:30:30.593Z,186.03
2022-12-28T07:32:57.989Z,209.53
2022-12-28T07:35:25.172Z,182.37
2022-12-28T07:37:52.469Z,198.60
2022-12-28T07:40:19.690Z,224.23
2022-12-28T07:42:46.857Z,191.67
2022-12-28T07:45:14.085Z,203.97
2022-12-28T07:47:41.263Z,175.40
2022-12-28T07:50:08.581Z,190.27
2022-12-28T07:52:37.084Z,144.67
2022-12-28T07:55:04.698Z,138.80
2022-12-28T07:57:31.823Z,139.53
2022-12-28T07:59:58.987Z,131.67
2022-12-28T08:02:26.313Z,132.77
2022-12-28T08:04:53.501Z,168.97
2022-12-28T08:07:20.692Z,489.70
2022-12-28T08:09:47.880Z,601.43
2022-12-28T08:12:15.020Z,528.90
2022-12-28T08:14:42.895Z,456.47
2022-12-28T08:17:11.466Z,420.23
2022-12-28T08:19:42.075Z,406.83
2022-12-28T08:22:09.256Z,326.83
2022-12-28T08:24:36.458Z,279.07
2022-12-28T08:27:03.642Z,235.67
2022-12-28T08:29:30.818Z,185.27
2022-12-28T08:31:57.972Z,204.33
2022-12-28T08:34:27.285Z,215.20
2022-12-28T08:36:55.538Z,219.23
2022-12-28T08:39:22.744Z,231.97
2022-12-28T08:41:49.924Z,272.00
2022-12-28T08:44:17.175Z,242.20
2022-12-28T08:46:44.436Z,266.33
2022-12-28T08:49:11.756Z,253.67
2022-12-28T08:51:39.886Z,379.20
2022-12-28T08:54:07.229Z,383.50
2022-12-28T08:56:35.363Z,314.20
2022-12-28T08:59:02.994Z,349.77
2022-12-28T09:01:31.152Z,287.77
2022-12-28T09:03:59.082Z,251.50
2022-12-28T09:06:31.106Z,271.77
2022-12-28T09:09:07.053Z,280.87
2022-12-28T09:11:35.203Z,242.23
2022-12-28T09:14:02.791Z,233.87
2022-12-28T09:16:30.050Z,199.63
2022-12-28T09:18:58.306Z,145.17
2022-12-28T09:21:26.045Z,112.70
2022-12-28T09:23:53.199Z,111.53
2022-12-28T09:26:21.303Z,30.27
2022-12-28T09:28:48.894Z,20.07
2022-12-28T09:31:16.249Z,8.00
2022-12-28T09:34:34.337Z,9.53
2022-12-28T09:36:45.950Z,10.60
2022-12-28T09:39:14.260Z,9.00
2022-12-28T09:41:45.212Z,8.60
2022-12-28T09:44:12.374Z,7.77
2022-12-28T09:46:43.866Z,6.10
2022-12-28T09:49:15.874Z,3.67
2022-12-28T09:51:56.191Z,3.80
2022-12-28T09:54:23.415Z,11.23
2022-12-28T09:56:50.635Z,6.68
2022-12-28T09:59:20.190Z,9.90
2022-12-28T10:01:49.437Z,10.13
2022-12-28T10:04:16.663Z,6.57
2022-12-28T10:06:44.252Z,6.95
2022-12-28T10:09:13.118Z,3.43
2022-12-28T10:11:41.091Z,4.30
2022-12-28T10:14:27.164Z,8.90
2022-12-28T10:16:54.804Z,8.00
2022-12-28T10:19:23.556Z,7.43
2022-12-28T10:22:00.412Z,6.18
2022-12-28T10:24:32.196Z,45.70
2022-12-28T10:27:00.607Z,20.13
2022-12-28T10:29:27.770Z,36.58
2022-12-28T10:32:12.688Z,10.63
2022-12-28T10:34:46.047Z,4.88
2022-12-28T10:37:16.792Z,7.73
2022-12-28T10:39:50.796Z,7.25
2022-12-28T10:42:21.876Z,13.00
2022-12-28T10:44:49.282Z,17.00
2022-12-28T10:47:29.321Z,11.55
2022-12-28T10:50:26.911Z,12.98
2022-12-28T10:52:44.380Z,7.55
2022-12-28T10:55:30.831Z,12.77
2022-12-28T11:01:10.662Z,15.65
2022-12-28T11:03:38.238Z,9.17
2022-12-28T11:06:14.740Z,7.95
2022-12-28T11:08:42.385Z,6.28
2022-12-28T11:11:36.093Z,4.53
2022-12-28T11:14:04.867Z,6.78
2022-12-28T11:16:32.124Z,5.80
2022-12-28T11:18:59.366Z,7.90
2022-12-28T11:21:26.599Z,11.73
2022-12-28T11:23:53.793Z,10.80
2022-12-28T11:26:21.139Z,13.60
2022-12-28T11:28:49.451Z,17.85
2022-12-28T11:31:18.687Z,4.50
2022-12-28T11:33:46.341Z,2.47
2022-12-28T11:36:17.586Z,5.53
2022-12-28T11:38:45.638Z,6.95
2022-12-28T11:41:13.589Z,6.25
2022-12-28T11:43:41.205Z,2.42
2022-12-28T11:46:29.192Z,11.55
2022-12-28T11:48:59.461Z,11.50
2022-12-28T11:51:26.593Z,9.50
2022-12-28T11:53:58.466Z,8.52
2022-12-28T11:56:28.444Z,7.07
2022-12-28T11:58:58.642Z,2.67
2022-12-28T12:01:37.052Z,3.88
2022-12-28T12:04:04.244Z,4.20
2022-12-28T12:06:43.466Z,2.80
2022-12-28T12:09:25.427Z,1.58
2022-12-28T12:11:52.641Z,6.10
2022-12-28T12:14:26.191Z,3.10
2022-12-28T12:17:03.532Z,4.18
2022-12-28T12:19:31.484Z,4.15
2022-12-28T12:22:07.830Z,2.97
2022-12-28T12:24:37.449Z,3.03
2022-12-28T12:27:33.518Z,5.43
2022-12-28T12:30:01.281Z,4.05
2022-12-28T12:32:31.754Z,2.13
2022-12-28T12:35:01.470Z,3.13
2022-12-28T12:37:47.628Z,2.47
2022-12-28T12:40:33.605Z,3.58
2022-12-28T12:43:06.868Z,8.93
2022-12-28T12:45:52.629Z,5.35
2022-12-28T12:48:25.803Z,5.03
2022-12-28T12:50:59.381Z,4.57
2022-12-28T12:53:26.494Z,4.28
2022-12-28T12:55:56.378Z,9.50
2022-12-28T12:58:27.502Z,5.40
2022-12-28T13:01:13.279Z,5.13
2022-12-28T13:03:47.391Z,9.10
2022-12-28T13:06:15.891Z,4.07
2022-12-28T13:08:48.484Z,6.07
2022-12-28T13:11:15.734Z,3.78
2022-12-28T13:13:44.015Z,3.90
2022-12-28T13:16:11.994Z,2.67
2022-12-28T13:18:46.472Z,3.78
2022-12-28T13:21:17.641Z,11.25
2022-12-28T13:23:45.270Z,7.40
2022-12-28T13:26:13.207Z,6.93
2022-12-28T13:28:40.366Z,5.65
2022-12-28T13:31:11.489Z,1.70
2022-12-28T13:33:38.655Z,3.45
2022-12-28T13:36:12.207Z,6.05
2022-12-28T13:38:39.432Z,3.63
2022-12-28T13:41:06.622Z,4.30
2022-12-28T13:43:52.632Z,12.82
2022-12-28T13:46:19.861Z,12.35
2022-12-28T13:48:47.793Z,8.52
2022-12-28T13:51:15.474Z,6.28
2022-12-28T13:53:43.477Z,5.95
2022-12-28T13:56:10.591Z,4.20
2022-12-28T13:58:38.879Z,4.88
2022-12-28T14:01:08.320Z,5.53
2022-12-28T14:03:41.439Z,3.75
2022-12-28T14:06:10.627Z,3.63
2022-12-28T14:08:38.513Z,2.58
2022-12-28T14:11:05.874Z,3.50
2022-12-28T14:13:33.274Z,8.50
2022-12-28T14:16:00.511Z,3.13
2022-12-28T14:18:30.108Z,4.20
2022-12-28T14:20:58.274Z,1.73
2022-12-28T14:23:29.158Z,4.57
2022-12-28T14:26:00.188Z,7.35
2022-12-28T14:28:30.980Z,3.78
2022-12-28T14:30:58.232Z,4.15
2022-12-28T14:33:26.250Z,4.85
2022-12-28T14:35:54.218Z,4.25
2022-12-28T14:38:22.108Z,7.35
2022-12-28T14:40:56.560Z,4.78
2022-12-28T14:43:24.910Z,4.85
2022-12-28T14:46:07.646Z,5.07
2022-12-28T14:51:31.318Z,9.70
2022-12-28T14:54:09.956Z,8.30
2022-12-28T14:56:37.126Z,11.80
2022-12-28T14:59:04.310Z,13.63
2022-12-28T15:00:16.415Z,13.23
2022-12-28T15:01:44.539Z,16.98
2022-12-28T15:04:26.840Z,17.67
2022-12-28T15:06:54.927Z,20.05
2022-12-28T15:09:22.199Z,17.17
2022-12-28T15:11:49.463Z,11.65
2022-12-28T15:14:16.721Z,8.00
2022-12-28T15:16:44.791Z,9.50
2022-12-28T15:19:12.035Z,10.77
2022-12-28T15:21:39.254Z,9.63
2022-12-28T15:24:06.642Z,8.50
2022-12-28T15:26:33.793Z,7.90
2022-12-28T15:29:04.720Z,9.93
2022-12-28T15:31:31.902Z,7.37
2022-12-28T15:33:59.107Z,9.80
2022-12-28T15:36:27.033Z,13.57
2022-12-28T15:38:55.592Z,11.37
2022-12-28T15:41:41.228Z,8.70
2022-12-28T15:44:08.366Z,7.33
2022-12-28T15:46:35.643Z,9.70
2022-12-28T15:49:03.027Z,9.57
2022-12-28T15:51:30.223Z,27.40
2022-12-28T15:53:57.381Z,35.53
2022-12-28T15:56:25.403Z,21.17
2022-12-28T15:58:56.299Z,13.68
2022-12-28T16:01:23.793Z,12.80
2022-12-28T16:03:51.402Z,14.13
2022-12-28T16:06:19.016Z,17.30
2022-12-28T16:08:46.260Z,13.50
2022-12-28T16:11:17.146Z,14.00
2022-12-28T16:13:44.321Z,14.33
2022-12-28T16:16:12.285Z,13.45
2022-12-28T16:18:39.746Z,10.97
2022-12-28T16:21:08.256Z,9.37
2022-12-28T16:23:36.269Z,35.00
2022-12-28T16:26:03.476Z,24.20
2022-12-28T16:28:31.042Z,37.00
2022-12-28T16:30:58.724Z,31.73
2022-12-28T16:33:25.994Z,29.37
2022-12-28T16:35:59.302Z,40.60
2022-12-28T16:38:28.042Z,45.43
2022-12-28T16:40:58.228Z,83.83
2022-12-28T16:43:25.485Z,92.53
2022-12-28T16:45:52.865Z,114.13
2022-12-28T16:48:20.087Z,81.23
2022-12-28T16:50:47.533Z,107.60
2022-12-28T16:53:15.505Z,144.43
2022-12-28T16:55:45.047Z,153.33
2022-12-28T16:58:12.230Z,181.33
2022-12-28T17:00:39.579Z,157.07
2022-12-28T17:03:06.822Z,144.00
2022-12-28T17:05:34.634Z,117.63
2022-12-28T17:08:02.143Z,231.17
2022-12-28T17:10:29.376Z,227.47
2022-12-28T17:12:56.513Z,149.50
2022-12-28T17:15:23.971Z,270.20
2022-12-28T17:17:51.132Z,130.17
2022-12-28T17:20:18.407Z,158.53
2022-12-28T17:22:45.616Z,107.27
2022-12-28T17:25:12.752Z,44.63
2022-12-28T17:27:39.908Z,40.80
2022-12-28T17:30:07.283Z,62.53
2022-12-28T17:32:34.416Z,42.97
2022-12-28T17:35:01.574Z,19.63
2022-12-28T17:37:28.834Z,19.10
2022-12-28T17:39:56.339Z,30.30
2022-12-28T17:42:23.651Z,26.97
2022-12-28T17:44:50.867Z,24.97
2022-12-28T17:47:18.051Z,19.90
2022-12-28T17:49:45.223Z,20.77
2022-12-28T17:52:17.316Z,15.47
2022-12-28T17:54:44.504Z,19.40
2022-12-28T17:57:11.719Z,14.03
2022-12-28T17:59:38.895Z,9.70
2022-12-28T18:02:09.995Z,10.20
2022-12-28T18:04:37.662Z,10.53
2022-12-28T18:07:04.890Z,11.37
2022-12-28T18:09:32.072Z,12.70
2022-12-28T18:11:59.216Z,12.17
2022-12-28T18:14:26.632Z,10.97
2022-12-28T18:16:54.342Z,13.37
2022-12-28T18:19:21.539Z,9.90
2022-12-28T18:21:49.017Z,14.53
2022-12-28T18:24:17.996Z,20.17
2022-12-28T18:26:45.290Z,13.63
2022-12-28T18:29:12.496Z,12.53
2022-12-28T18:31:39.731Z,10.03
2022-12-28T18:34:07.445Z,9.23
2022-12-28T18:36:34.634Z,17.30
2022-12-28T18:39:02.740Z,13.47
2022-12-28T18:41:34.035Z,10.57
2022-12-28T18:44:02.994Z,14.57
2022-12-28T18:46:30.367Z,9.57
2022-12-28T18:48:57.617Z,8.70
2022-12-28T18:51:24.778Z,9.80
2022-12-28T18:53:51.931Z,10.73
2022-12-28T18:56:19.680Z,7.23
2022-12-28T18:58:50.720Z,12.33
2022-12-28T19:02:04.541Z,21.60
2022-12-28T19:04:07.822Z,25.50
2022-12-28T19:06:35.243Z,12.43
2022-12-28T19:09:02.402Z,10.70
2022-12-28T19:11:29.682Z,12.57
2022-12-28T19:13:56.869Z,11.60
2022-12-28T19:16:30.507Z,7.77
2022-12-28T19:18:58.141Z,6.97
2022-12-28T19:21:25.986Z,10.60
2022-12-28T19:23:56.676Z,14.33
2022-12-28T19:26:24.207Z,14.27
2022-12-28T19:28:51.400Z,10.30
2022-12-28T19:31:18.678Z,8.77
2022-12-28T19:33:45.888Z,9.97
2022-12-28T19:36:13.013Z,11.57
2022-12-28T19:38:40.248Z,8.43
2022-12-28T19:41:08.447Z,9.73
2022-12-28T19:43:35.655Z,10.07
2022-12-28T19:46:03.738Z,9.60
2022-12-28T19:48:30.939Z,8.67
2022-12-28T19:50:58.157Z,10.90
2022-12-28T19:53:25.437Z,15.20
2022-12-28T19:55:56.939Z,12.47
2022-12-28T19:58:25.502Z,11.97
2022-12-28T20:00:53.049Z,11.03
2022-12-28T20:03:20.315Z,13.47
2022-12-28T20:05:47.591Z,10.47
2022-12-28T20:08:14.773Z,11.43
2022-12-28T20:10:42.014Z,96.57
2022-12-28T20:13:09.206Z,26.53
2022-12-28T20:15:36.423Z,25.37
2022-12-28T20:18:03.643Z,49.90
2022-12-28T20:20:40.770Z,32.30
2022-12-28T20:23:18.180Z,28.20
2022-12-28T20:25:54.687Z,34.03
2022-12-28T20:28:21.935Z,32.40
2022-12-28T20:30:49.202Z,61.03
2022-12-28T20:33:16.503Z,59.03
2022-12-28T20:35:55.940Z,85.00
2022-12-28T20:38:23.108Z,119.70
2022-12-28T20:40:50.291Z,173.23
2022-12-28T20:43:23.345Z,213.03
2022-12-28T20:45:54.183Z,162.27
2022-12-28T20:48:21.734Z,149.17
2022-12-28T20:50:49.039Z,144.27
2022-12-28T20:53:17.212Z,133.13
2022-12-28T20:55:44.367Z,131.30
2022-12-28T20:58:11.592Z,150.53
2022-12-28T21:00:39.797Z,133.87
2022-12-28T21:03:06.956Z,183.50
2022-12-28T21:05:34.407Z,174.00
2022-12-28T21:08:01.542Z,161.60
2022-12-28T21:10:28.708Z,127.90
2022-12-28T21:12:55.918Z,150.33
2022-12-28T21:15:23.040Z,157.23
2022-12-28T21:17:50.198Z,140.30
2022-12-28T21:20:17.411Z,146.30
2022-12-28T21:22:44.573Z,145.63
2022-12-28T21:25:11.717Z,151.53
2022-12-28T21:27:38.919Z,153.63
2022-12-28T21:30:06.384Z,146.57
2022-12-28T21:32:33.574Z,150.50
2022-12-28T21:35:00.817Z,138.47
2022-12-28T21:37:34.219Z,142.93
2022-12-28T21:40:02.093Z,134.87
2022-12-28T21:42:29.442Z,142.20
2022-12-28T21:44:56.571Z,147.17
2022-12-28T21:47:23.802Z,206.60
2022-12-28T21:49:51.002Z,204.70
2022-12-28T21:52:18.139Z,150.40
2022-12-28T21:54:45.338Z,149.00
2022-12-28T21:57:12.688Z,143.77
2022-12-28T21:59:39.959Z,200.73
2022-12-28T22:02:35.507Z,166.77
2022-12-28T22:05:03.692Z,137.83
2022-12-28T22:07:31.023Z,115.33
2022-12-28T22:10:17.236Z,100.63
2022-12-28T22:12:44.436Z,92.73
2022-12-28T22:15:31.520Z,86.23
2022-12-28T22:17:59.655Z,100.97
2022-12-28T22:20:27.550Z,87.20
2022-12-28T22:22:58.398Z,90.57
2022-12-28T22:25:25.855Z,94.83
2022-12-28T22:27:53.026Z,78.53
2022-12-28T22:30:20.419Z,85.63
2022-12-28T22:32:47.755Z,84.50
2022-12-28T22:35:14.997Z,49.73
2022-12-28T22:37:42.900Z,35.27
2022-12-28T22:40:10.599Z,38.07
2022-12-28T22:42:47.453Z,37.87
2022-12-28T22:45:18.297Z,38.47
2022-12-28T22:47:45.864Z,39.03
2022-12-28T22:50:13.755Z,40.40
2022-12-28T22:52:40.939Z,67.77
2022-12-28T22:55:08.239Z,92.57
2022-12-28T22:57:35.610Z,87.53
2022-12-28T23:00:02.828Z,91.50
2022-12-28T23:02:30.822Z,87.77
2022-12-28T23:04:58.194Z,77.57
2022-12-28T23:07:25.431Z,58.10
2022-12-28T23:09:52.683Z,58.47
2022-12-28T23:12:19.931Z,53.13
2022-12-28T23:15:05.986Z,61.30
2022-12-28T23:17:33.183Z,27.13
2022-12-28T23:20:19.582Z,33.70
2022-12-28T23:23:05.510Z,17.87
2022-12-28T23:25:51.683Z,21.73
2022-12-28T23:28:18.928Z,22.97
2022-12-28T23:30:47.093Z,25.53
2022-12-28T23:33:14.460Z,24.10
2022-12-28T23:35:41.633Z,26.80
2022-12-28T23:38:08.895Z,27.50
2022-12-28T23:40:38.019Z,23.60
2022-12-28T23:43:05.179Z,20.93
2022-12-28T23:45:32.329Z,18.20
2022-12-28T23:47:59.528Z,21.63
2022-12-28T23:50:26.719Z,16.73
2022-12-28T23:52:53.899Z,33.50
2022-12-28T23:55:21.067Z,16.20
2022-12-28T23:57:48.232Z,10.27
